createdAt,value
2023-05-05T00:01:56.637Z,97684.19
2023-05-05T00:04:25.176Z,97686.94
2023-05-05T00:06:53.613Z,97682.56
2023-05-05T00:09:23.538Z,97686.47
2023-05-05T00:11:51.966Z,97684.19
2023-05-05T00:14:20.322Z,97681.44
2023-05-05T00:16:48.875Z,97679.81
2023-05-05T00:19:17.419Z,97683.38
2023-05-05T00:21:45.858Z,97684.19
2023-05-05T00:24:14.279Z,97678.69
2023-05-05T00:26:44.060Z,97685.00
2023-05-05T00:29:12.438Z,97688.09
2023-05-05T00:31:40.924Z,97690.84
2023-05-05T00:34:09.466Z,97692.78
2023-05-05T00:36:37.913Z,97684.50
2023-05-05T00:39:06.334Z,97682.56
2023-05-05T00:41:34.856Z,97680.94
2023-05-05T00:44:04.854Z,97689.72
2023-05-05T00:46:35.750Z,97682.56
2023-05-05T00:49:04.263Z,97684.50
2023-05-05T00:51:33.270Z,97682.06
2023-05-05T00:54:02.267Z,97684.81
2023-05-05T00:56:30.915Z,97689.53
2023-05-05T00:58:59.372Z,97690.34
2023-05-05T01:01:29.419Z,97688.75
2023-05-05T01:03:58.116Z,97693.09
2023-05-05T01:06:43.055Z,97697.00
2023-05-05T01:09:25.020Z,97695.84
2023-05-05T01:12:02.223Z,97699.78
2023-05-05T01:14:39.673Z,97702.53
2023-05-05T01:17:17.349Z,97699.78
2023-05-05T01:20:00.140Z,97695.38
2023-05-05T01:22:41.752Z,97698.16
2023-05-05T01:25:31.890Z,97704.47
2023-05-05T01:28:12.157Z,97711.94
2023-05-05T01:30:59.451Z,97703.66
2023-05-05T01:33:36.908Z,97697.31
2023-05-05T01:36:12.596Z,97703.66
2023-05-05T01:38:43.271Z,97696.50
2023-05-05T01:41:16.265Z,97697.31
2023-05-05T01:43:47.061Z,97702.03
2023-05-05T01:46:17.407Z,97702.03
2023-05-05T01:48:49.300Z,97704.78
2023-05-05T01:51:20.148Z,97702.03
2023-05-05T01:53:51.341Z,97700.41
2023-05-05T01:56:21.306Z,97703.16
2023-05-05T01:58:50.806Z,97701.53
2023-05-05T02:01:21.926Z,97700.41
2023-05-05T02:03:53.382Z,97700.41
2023-05-05T02:06:23.868Z,97704.78
2023-05-05T02:08:53.865Z,97705.09
2023-05-05T02:11:22.538Z,97705.91
2023-05-05T02:13:52.834Z,97701.53
2023-05-05T02:16:23.759Z,97693.25
2023-05-05T02:18:55.707Z,97696.00
2023-05-05T02:21:24.265Z,97698.78
2023-05-05T02:23:53.606Z,97697.16
2023-05-05T02:26:26.179Z,97696.81
2023-05-05T02:29:03.541Z,97690.50
2023-05-05T02:31:35.538Z,97698.78
2023-05-05T02:34:07.186Z,97697.16
2023-05-05T02:36:39.496Z,97701.53
2023-05-05T02:39:12.601Z,97691.63
2023-05-05T02:41:44.276Z,97694.38
2023-05-05T02:44:24.599Z,97694.38
2023-05-05T02:46:55.102Z,97683.38
2023-05-05T02:49:26.187Z,97686.13
2023-05-05T02:51:59.754Z,97691.63
2023-05-05T02:54:32.573Z,97690.00
2023-05-05T02:57:02.513Z,97695.50
2023-05-05T02:59:47.315Z,97684.50
2023-05-05T03:02:25.650Z,97682.88
2023-05-05T03:05:01.757Z,97689.50
2023-05-05T03:07:35.892Z,97693.88
2023-05-05T03:10:09.801Z,97701.84
2023-05-05T03:12:49.441Z,97699.41
2023-05-05T03:15:26.743Z,97699.41
2023-05-05T03:17:57.553Z,97705.72
2023-05-05T03:20:27.708Z,97693.06
2023-05-05T03:22:58.635Z,97704.09
2023-05-05T03:25:45.847Z,97707.66
2023-05-05T03:28:21.763Z,97708.78
2023-05-05T03:30:50.273Z,97707.97
2023-05-05T03:33:20.268Z,97715.13
2023-05-05T03:35:50.260Z,97707.97
2023-05-05T03:38:19.728Z,97722.91
2023-05-05T03:40:48.265Z,97726.16
2023-05-05T03:43:20.776Z,97725.34
2023-05-05T03:45:50.491Z,97725.66
2023-05-05T03:48:19.254Z,97722.06
2023-05-05T03:50:47.976Z,97739.44
2023-05-05T03:53:19.109Z,97736.66
2023-05-05T03:55:47.556Z,97735.03
2023-05-05T03:58:16.438Z,97733.09
2023-05-05T04:00:45.350Z,97733.09
2023-05-05T04:03:14.517Z,97741.38
2023-05-05T04:05:44.046Z,97739.44
2023-05-05T04:08:12.918Z,97749.66
2023-05-05T04:10:43.590Z,97737.00
2023-05-05T04:13:12.161Z,97743.31
2023-05-05T04:15:45.627Z,97749.94
2023-05-05T04:18:14.618Z,97746.88
2023-05-05T04:20:43.007Z,97744.44
2023-05-05T04:23:12.902Z,97752.41
2023-05-05T04:25:43.462Z,97746.06
2023-05-05T04:28:13.535Z,97748.81
2023-05-05T04:30:42.043Z,97748.00
2023-05-05T04:33:10.903Z,97751.91
2023-05-05T04:35:39.431Z,97749.13
2023-05-05T04:38:07.844Z,97751.91
2023-05-05T04:40:39.749Z,97749.94
2023-05-05T04:43:10.678Z,97746.38
2023-05-05T04:45:39.267Z,97750.47
2023-05-05T04:48:08.297Z,97761.34
2023-05-05T04:50:37.020Z,97757.47
2023-05-05T04:53:05.402Z,97758.78
2023-05-05T04:55:34.081Z,97760.41
2023-05-05T04:58:02.595Z,97759.75
2023-05-05T05:00:32.475Z,97759.75
2023-05-05T05:03:01.106Z,97757.50
2023-05-05T05:05:30.563Z,97759.13
2023-05-05T05:07:59.187Z,97755.25
2023-05-05T05:10:28.439Z,97762.38
2023-05-05T05:12:56.931Z,97765.97
2023-05-05T05:15:25.700Z,97771.97
2023-05-05T05:17:55.660Z,97769.22
2023-05-05T05:20:24.603Z,97767.28
2023-05-05T05:22:53.956Z,97770.53
2023-05-05T05:25:23.310Z,97761.13
2023-05-05T05:28:02.189Z,97765.53
2023-05-05T05:30:38.612Z,97765.22
2023-05-05T05:33:10.602Z,97767.16
2023-05-05T05:35:39.571Z,97768.78
2023-05-05T05:38:08.207Z,97774.78
2023-05-05T05:40:37.395Z,97769.28
2023-05-05T05:43:05.873Z,97773.66
2023-05-05T05:45:35.861Z,97773.34
2023-05-05T05:48:06.637Z,97770.59
2023-05-05T05:50:36.455Z,97772.03
2023-05-05T05:53:05.670Z,97783.56
2023-05-05T05:55:34.357Z,97780.81
2023-05-05T05:58:03.430Z,97778.06
2023-05-05T06:00:32.084Z,97776.91
2023-05-05T06:03:07.245Z,97781.31
2023-05-05T06:05:40.076Z,97779.38
2023-05-05T06:08:09.121Z,97790.09
2023-05-05T06:10:42.542Z,97779.06
2023-05-05T06:13:16.503Z,97784.56
2023-05-05T06:15:48.328Z,97789.75
2023-05-05T06:18:17.972Z,97780.69
2023-05-05T06:20:50.350Z,97777.91
2023-05-05T06:23:19.678Z,97781.50
2023-05-05T06:25:54.500Z,97787.00
2023-05-05T06:28:22.988Z,97782.31
2023-05-05T06:30:51.732Z,97785.06
2023-05-05T06:33:20.166Z,97789.44
2023-05-05T06:35:50.129Z,97783.13
2023-05-05T06:38:18.500Z,97787.00
2023-05-05T06:40:48.538Z,97793.34
2023-05-05T06:43:17.639Z,97793.34
2023-05-05T06:45:53.359Z,97788.94
2023-05-05T06:48:22.068Z,97785.38
2023-05-05T06:50:51.924Z,97790.91
2023-05-05T06:53:20.398Z,97785.38
2023-05-05T06:55:49.210Z,97787.31
2023-05-05T06:58:17.617Z,97790.91
2023-05-05T07:00:46.024Z,97787.31
2023-05-05T07:03:14.629Z,97785.06
2023-05-05T07:05:43.260Z,97795.28
2023-05-05T07:08:13.724Z,97798.84
2023-05-05T07:10:42.157Z,97794.97
2023-05-05T07:13:10.674Z,97799.66
2023-05-05T07:15:46.143Z,97797.72
2023-05-05T07:18:14.604Z,97797.41
2023-05-05T07:20:43.406Z,97788.00
2023-05-05T07:23:13.143Z,97796.78
2023-05-05T07:25:41.689Z,97790.44
2023-05-05T07:28:10.285Z,97794.84
2023-05-05T07:30:38.736Z,97793.22
2023-05-05T07:33:07.300Z,97799.84
2023-05-05T07:35:35.753Z,97800.66
2023-05-05T07:38:04.149Z,97796.28
2023-05-05T07:40:34.415Z,97805.38
2023-05-05T07:43:02.765Z,97798.72
2023-05-05T07:45:31.492Z,97802.31
2023-05-05T07:48:00.022Z,97799.22
2023-05-05T07:50:28.480Z,97803.13
2023-05-05T07:53:06.119Z,97803.13
2023-05-05T07:55:43.284Z,97808.63
2023-05-05T07:58:11.971Z,97812.50
2023-05-05T08:00:40.851Z,97805.38
2023-05-05T08:03:11.652Z,97798.22
2023-05-05T08:05:40.687Z,97798.22
2023-05-05T08:08:09.303Z,97799.34
2023-05-05T08:10:37.731Z,97800.97
2023-05-05T08:13:07.688Z,97805.38
2023-05-05T08:15:36.186Z,97798.72
2023-05-05T08:18:04.909Z,97801.47
2023-05-05T08:20:33.384Z,97800.84
2023-05-05T08:23:01.846Z,97793.06
2023-05-05T08:25:30.415Z,97799.41
2023-05-05T08:27:58.900Z,97799.72
2023-05-05T08:30:31.256Z,97806.06
2023-05-05T08:33:00.580Z,97800.84
2023-05-05T08:35:29.039Z,97811.88
2023-05-05T08:37:59.068Z,97819.84
2023-05-05T08:40:34.291Z,97814.66
2023-05-05T08:43:03.012Z,97820.16
2023-05-05T08:45:33.255Z,97821.28
2023-05-05T08:48:03.677Z,97825.19
2023-05-05T08:50:33.272Z,97815.78
2023-05-05T08:53:10.619Z,97824.06
2023-05-05T08:55:46.274Z,97823.75
2023-05-05T08:58:16.444Z,97827.31
2023-05-05T09:00:46.819Z,97830.06
2023-05-05T09:03:16.706Z,97828.13
2023-05-05T09:05:45.635Z,97831.69
2023-05-05T09:08:14.633Z,97830.56
2023-05-05T09:10:44.651Z,97829.44
2023-05-05T09:13:13.388Z,97836.59
2023-05-05T09:15:42.532Z,97830.25
2023-05-05T09:18:13.092Z,97839.34
2023-05-05T09:20:42.189Z,97837.41
2023-05-05T09:23:12.050Z,97839.34
2023-05-05T09:25:41.222Z,97850.09
2023-05-05T09:28:11.275Z,97848.44
2023-05-05T09:30:40.862Z,97845.41
2023-05-05T09:33:09.459Z,97838.25
2023-05-05T09:35:52.416Z,97839.34
2023-05-05T09:38:22.071Z,97835.78
2023-05-05T09:40:52.137Z,97832.50
2023-05-05T09:43:22.550Z,97816.59
2023-05-05T09:45:51.801Z,97813.53
2023-05-05T09:48:27.601Z,97822.09
2023-05-05T09:50:59.116Z,97823.75
2023-05-05T09:53:39.648Z,97823.41
2023-05-05T09:56:09.185Z,97811.25
2023-05-05T09:58:37.797Z,97807.69
2023-05-05T10:01:06.430Z,97800.72
2023-05-05T10:03:34.959Z,97801.84
2023-05-05T10:06:07.624Z,97805.97
2023-05-05T10:08:36.059Z,97812.28
2023-05-05T10:11:06.894Z,97804.00
2023-05-05T10:13:37.742Z,97798.50
2023-05-05T10:16:09.701Z,97797.38
2023-05-05T10:18:44.697Z,97804.50
2023-05-05T10:21:20.055Z,97799.31
2023-05-05T10:23:50.782Z,97796.34
2023-05-05T10:26:23.177Z,97801.84
2023-05-05T10:28:56.058Z,97799.72
2023-05-05T10:31:34.512Z,97801.97
2023-05-05T10:34:06.708Z,97799.22
2023-05-05T10:36:38.777Z,97791.25
2023-05-05T10:39:09.302Z,97786.06
2023-05-05T10:41:38.618Z,97788.81
2023-05-05T10:44:07.901Z,97792.72
2023-05-05T10:46:36.421Z,97783.31
2023-05-05T10:49:13.268Z,97775.03
2023-05-05T10:51:53.528Z,97773.91
2023-05-05T10:54:31.717Z,97773.91
2023-05-05T10:57:02.509Z,97764.50
2023-05-05T10:59:48.904Z,97774.41
2023-05-05T11:02:22.055Z,97766.94
2023-05-05T11:05:07.346Z,97767.75
2023-05-05T11:07:37.497Z,97763.38
2023-05-05T11:10:07.839Z,97762.25
2023-05-05T11:13:06.510Z,97753.66
2023-05-05T11:15:38.613Z,97750.56
2023-05-05T11:18:08.465Z,97747.22
2023-05-05T11:21:15.640Z,97740.56
2023-05-05T11:23:47.691Z,97738.31
2023-05-05T11:26:18.202Z,97735.53
2023-05-05T11:28:59.236Z,97735.03
2023-05-05T11:31:28.122Z,97734.22
2023-05-05T11:33:56.710Z,97724.63
2023-05-05T11:36:42.277Z,97723.00
2023-05-05T11:39:22.873Z,97718.59
2023-05-05T11:42:12.871Z,97720.22
2023-05-05T11:44:42.520Z,97714.72
2023-05-05T11:47:29.644Z,97708.88
2023-05-05T11:49:58.221Z,97713.59
2023-05-05T11:52:28.332Z,97713.59
2023-05-05T11:55:03.772Z,97711.97
2023-05-05T11:57:32.380Z,97708.69
2023-05-05T12:00:02.973Z,97700.56
2023-05-05T12:02:35.703Z,97704.63
2023-05-05T12:05:04.965Z,97704.31
2023-05-05T12:07:34.331Z,97696.53
2023-05-05T12:10:04.440Z,97699.28
2023-05-05T12:12:38.007Z,97692.47
2023-05-05T12:15:07.971Z,97693.28
2023-05-05T12:17:39.680Z,97691.66
2023-05-05T12:20:10.130Z,97690.03
2023-05-05T12:22:39.125Z,97686.47
2023-05-05T12:25:09.912Z,97691.97
2023-05-05T12:27:38.731Z,97696.69
2023-05-05T12:30:16.461Z,97687.09
2023-05-05T12:32:45.924Z,97690.66
2023-05-05T12:35:15.941Z,97695.03
2023-05-05T12:37:44.721Z,97682.38
2023-05-05T12:40:46.085Z,97673.63
2023-05-05T12:43:26.410Z,97678.81
2023-05-05T12:46:09.116Z,97676.06
2023-05-05T12:48:39.312Z,97673.31
2023-05-05T12:51:15.957Z,97670.53
2023-05-05T12:53:44.773Z,97664.22
2023-05-05T12:56:36.042Z,97664.22
2023-05-05T12:59:06.104Z,97658.38
2023-05-05T13:01:34.936Z,97645.22
2023-05-05T13:04:08.667Z,97646.03
2023-05-05T13:06:37.782Z,97647.66
2023-05-05T13:09:07.008Z,97638.56
2023-05-05T13:11:40.595Z,97628.69
2023-05-05T13:14:09.427Z,97632.56
2023-05-05T13:16:37.926Z,97625.09
2023-05-05T13:19:06.389Z,97616.84
2023-05-05T13:21:34.960Z,97623.97
2023-05-05T13:26:35.623Z,97604.19
2023-05-05T13:29:05.431Z,97611.31
2023-05-05T13:31:33.930Z,97598.66
2023-05-05T13:34:02.504Z,97597.03
2023-05-05T13:36:31.242Z,97592.34
2023-05-05T13:38:59.598Z,97594.91
2023-05-05T13:41:28.060Z,97587.47
2023-05-05T13:43:56.546Z,97581.13
2023-05-05T13:46:26.485Z,97585.84
2023-05-05T13:48:56.899Z,97579.50
2023-05-05T13:51:25.486Z,97566.84
2023-05-05T13:53:53.974Z,97565.22
2023-05-05T13:56:26.056Z,97570.72
2023-05-05T13:58:54.612Z,97560.53
2023-05-05T14:01:23.115Z,97554.19
2023-05-05T14:03:54.442Z,97556.63
2023-05-05T14:06:24.022Z,97551.94
2023-05-05T14:08:52.616Z,97541.38
2023-05-05T14:11:21.383Z,97550.16
2023-05-05T14:13:49.818Z,97544.31
2023-05-05T14:16:18.297Z,97544.00
2023-05-05T14:18:46.671Z,97542.88
2023-05-05T14:21:16.692Z,97538.97
2023-05-05T14:23:45.192Z,97519.34
2023-05-05T14:26:13.583Z,97524.53
2023-05-05T14:28:42.225Z,97528.94
2023-05-05T14:31:11.111Z,97522.28
2023-05-05T14:33:39.631Z,97523.91
2023-05-05T14:36:08.761Z,97524.38
2023-05-05T14:38:38.635Z,97521.63
2023-05-05T14:41:07.056Z,97520.50
2023-05-05T14:43:36.809Z,97517.75
2023-05-05T14:46:07.104Z,97511.09
2023-05-05T14:48:36.035Z,97516.31
2023-05-05T14:51:04.648Z,97514.38
2023-05-05T14:53:33.145Z,97508.84
2023-05-05T14:56:03.156Z,97512.09
2023-05-05T14:58:31.530Z,97509.84
2023-05-05T15:01:00.498Z,97502.69
2023-05-05T15:03:29.147Z,97505.94
2023-05-05T15:05:57.804Z,97501.56
2023-05-05T15:08:26.249Z,97504.00
2023-05-05T15:10:54.755Z,97505.94
2023-05-05T15:13:24.462Z,97500.44
2023-05-05T15:15:53.032Z,97509.19
2023-05-05T15:18:21.485Z,97505.94
2023-05-05T15:20:49.944Z,97507.06
2023-05-05T15:23:18.452Z,97516.47
2023-05-05T15:25:46.911Z,97512.09
2023-05-05T15:28:15.297Z,97513.56
2023-05-05T15:30:45.527Z,97504.47
2023-05-05T15:33:14.096Z,97507.22
2023-05-05T15:35:42.538Z,97502.31
2023-05-05T15:38:11.110Z,97498.44
2023-05-05T15:40:39.603Z,97483.34
2023-05-05T15:43:07.992Z,97477.00
2023-05-05T15:45:36.383Z,97480.91
2023-05-05T15:48:06.848Z,97484.78
2023-05-05T15:50:35.350Z,97466.63
2023-05-05T15:53:03.777Z,97471.34
2023-05-05T15:55:32.203Z,97474.41
2023-05-05T15:58:01.008Z,97478.31
2023-05-05T16:00:31.362Z,97478.31
2023-05-05T16:02:59.908Z,97473.09
2023-05-05T16:05:29.774Z,97467.91
2023-05-05T16:07:58.124Z,97475.06
2023-05-05T16:10:26.681Z,97478.94
2023-05-05T16:12:55.172Z,97473.44
2023-05-05T16:15:23.918Z,97471.81
2023-05-05T16:17:52.422Z,97471.00
2023-05-05T16:20:20.960Z,97478.47
2023-05-05T16:22:50.781Z,97482.34
2023-05-05T16:25:19.820Z,97491.44
2023-05-05T16:27:48.255Z,97490.63
2023-05-05T16:30:16.860Z,97486.25
2023-05-05T16:32:45.321Z,97487.88
2023-05-05T16:35:13.785Z,97492.06
2023-05-05T16:37:42.294Z,97505.53
2023-05-05T16:40:13.378Z,97505.06
2023-05-05T16:42:44.219Z,97516.56
2023-05-05T16:45:12.963Z,97523.72
2023-05-05T16:47:41.466Z,97525.34
2023-05-05T16:50:10.401Z,97546.25
2023-05-05T16:52:38.868Z,97582.28
2023-05-05T16:55:08.036Z,97591.88
2023-05-05T16:57:38.026Z,97602.25
2023-05-05T17:00:07.838Z,97603.88
2023-05-05T17:02:36.804Z,97601.63
2023-05-05T17:05:06.170Z,97604.06
2023-05-05T17:07:34.965Z,97615.91
2023-05-05T17:10:03.515Z,97634.13
2023-05-05T17:12:32.079Z,97656.69
2023-05-05T17:15:02.269Z,97653.91
2023-05-05T17:17:30.797Z,97661.06
2023-05-05T17:19:59.398Z,97657.16
2023-05-05T17:22:28.421Z,97660.44
2023-05-05T17:24:57.172Z,97667.06
2023-05-05T17:27:25.750Z,97670.97
2023-05-05T17:29:54.620Z,97673.22
2023-05-05T17:32:24.497Z,97672.72
2023-05-05T17:34:52.907Z,97679.34
2023-05-05T17:37:21.459Z,97669.44
2023-05-05T17:39:50.024Z,97660.69
2023-05-05T17:42:22.771Z,97664.56
2023-05-05T17:44:51.295Z,97659.38
2023-05-05T17:47:22.445Z,97632.09
2023-05-05T17:49:53.653Z,97637.63
2023-05-05T17:52:22.670Z,97631.28
2023-05-05T17:54:51.567Z,97623.34
2023-05-05T17:57:22.801Z,97626.09
2023-05-05T17:59:53.310Z,97624.78
2023-05-05T18:02:22.430Z,97618.47
2023-05-05T18:04:52.349Z,97619.28
2023-05-05T18:07:20.811Z,97635.00
2023-05-05T18:09:49.255Z,97643.78
2023-05-05T18:12:17.675Z,97642.66
2023-05-05T18:14:46.128Z,97645.91
2023-05-05T18:17:14.585Z,97653.03
2023-05-05T18:19:46.161Z,97645.25
2023-05-05T18:22:17.605Z,97637.81
2023-05-05T18:24:46.786Z,97635.53
2023-05-05T18:27:15.546Z,97643.00
2023-05-05T18:29:43.983Z,97636.34
2023-05-05T18:32:12.418Z,97623.38
2023-05-05T18:34:40.811Z,97622.25
2023-05-05T18:37:09.313Z,97612.66
2023-05-05T18:39:39.109Z,97622.25
2023-05-05T18:42:08.192Z,97626.13
2023-05-05T18:44:36.664Z,97641.88
2023-05-05T18:47:05.347Z,97656.78
2023-05-05T18:49:33.914Z,97654.34
2023-05-05T18:52:02.438Z,97662.13
2023-05-05T18:54:31.041Z,97673.97
2023-05-05T18:57:01.142Z,97677.88
2023-05-05T18:59:29.834Z,97679.00
2023-05-05T19:01:59.347Z,97683.69
2023-05-05T19:04:31.791Z,97686.47
2023-05-05T19:07:00.466Z,97686.78
2023-05-05T19:09:28.930Z,97687.91
2023-05-05T19:11:57.344Z,97696.50
2023-05-05T19:14:27.192Z,97695.69
2023-05-05T19:16:58.971Z,97699.56
2023-05-05T19:19:27.663Z,97705.09
2023-05-05T19:21:56.774Z,97713.69
2023-05-05T19:24:25.267Z,97718.38
2023-05-05T19:26:53.776Z,97714.81
2023-05-05T19:29:22.212Z,97717.56
2023-05-05T19:31:52.077Z,97715.13
2023-05-05T19:34:21.650Z,97707.16
2023-05-05T19:36:50.193Z,97713.50
2023-05-05T19:39:18.589Z,97719.00
2023-05-05T19:41:47.018Z,97733.13
2023-05-05T19:44:15.595Z,97743.31
2023-05-05T19:46:44.047Z,97740.56
2023-05-05T19:49:13.898Z,97741.69
2023-05-05T19:51:43.722Z,97748.34
2023-05-05T19:54:12.203Z,97751.09
2023-05-05T19:56:40.628Z,97748.34
2023-05-05T19:59:09.298Z,97745.59
2023-05-05T20:01:37.902Z,97747.84
2023-05-05T20:04:06.448Z,97748.66
2023-05-05T20:06:37.442Z,97746.72
2023-05-05T20:09:06.544Z,97749.47
2023-05-05T20:11:35.660Z,97750.28
2023-05-05T20:14:04.232Z,97758.88
2023-05-05T20:16:33.480Z,97755.00
2023-05-05T20:19:02.072Z,97749.47
2023-05-05T20:21:31.074Z,97756.94
2023-05-05T20:24:01.170Z,97748.97
2023-05-05T20:26:29.641Z,97749.78
2023-05-05T20:28:58.214Z,97748.97
2023-05-05T20:31:26.800Z,97748.97
2023-05-05T20:33:55.265Z,97748.97
2023-05-05T20:36:26.236Z,97757.25
2023-05-05T20:38:54.850Z,97762.75
2023-05-05T20:41:24.705Z,97761.13
2023-05-05T20:43:53.109Z,97762.75
2023-05-05T20:46:21.568Z,97772.16
2023-05-05T20:48:50.013Z,97765.84
2023-05-05T20:51:18.488Z,97763.38
2023-05-05T20:53:47.151Z,97756.25
2023-05-05T20:56:15.580Z,97760.13
2023-05-05T20:58:45.322Z,97741.97
2023-05-05T21:01:13.726Z,97739.22
2023-05-05T21:03:42.195Z,97760.75
2023-05-05T21:06:10.578Z,97757.50
2023-05-05T21:08:39.580Z,97754.75
2023-05-05T21:11:10.070Z,97746.47
2023-05-05T21:13:38.516Z,97744.03
2023-05-05T21:16:08.500Z,97738.84
2023-05-05T21:18:37.007Z,97734.44
2023-05-05T21:21:05.546Z,97741.59
2023-05-05T21:23:34.046Z,97738.38
2023-05-05T21:26:03.444Z,97746.63
2023-05-05T21:28:31.884Z,97754.09
2023-05-05T21:31:20.400Z,97742.25
2023-05-05T21:33:50.219Z,97736.72
2023-05-05T21:36:19.417Z,97739.50
2023-05-05T21:38:47.995Z,97746.13
2023-05-05T21:41:16.686Z,97751.66
2023-05-05T21:43:45.169Z,97749.19
2023-05-05T21:46:13.604Z,97747.25
2023-05-05T21:48:41.998Z,97751.97
2023-05-05T21:51:11.746Z,97751.16
2023-05-05T21:53:40.953Z,97744.81
2023-05-05T21:56:09.499Z,97745.13
2023-05-05T21:58:37.967Z,97745.13
2023-05-05T22:01:06.550Z,97750.66
2023-05-05T22:03:35.457Z,97743.50
2023-05-05T22:06:04.133Z,97733.59
2023-05-05T22:08:33.893Z,97735.22
2023-05-05T22:11:02.663Z,97739.13
2023-05-05T22:13:31.214Z,97739.44
2023-05-05T22:15:59.747Z,97740.25
2023-05-05T22:18:28.280Z,97743.81
2023-05-05T22:20:56.882Z,97743.00
2023-05-05T22:23:25.341Z,97737.50
2023-05-05T22:25:55.072Z,97735.84
2023-05-05T22:28:23.837Z,97727.59
2023-05-05T22:30:52.425Z,97731.47
2023-05-05T22:33:20.876Z,97730.66
2023-05-05T22:35:49.294Z,97729.84
2023-05-05T22:38:17.709Z,97731.47
2023-05-05T22:40:46.472Z,97730.66
2023-05-05T22:43:16.268Z,97729.84
2023-05-05T22:45:45.117Z,97735.34
2023-05-05T22:48:13.566Z,97731.78
2023-05-05T22:50:42.413Z,97735.34
2023-05-05T22:53:10.897Z,97740.06
2023-05-05T22:55:39.414Z,97739.25
2023-05-05T22:58:08.701Z,97736.50
2023-05-05T23:00:38.570Z,97732.91
2023-05-05T23:03:06.995Z,97734.84
2023-05-05T23:05:35.710Z,97738.44
2023-05-05T23:08:04.350Z,97723.84
2023-05-05T23:10:32.825Z,97720.25
2023-05-05T23:13:01.250Z,97730.47
2023-05-05T23:15:30.026Z,97722.19
2023-05-05T23:17:59.835Z,97720.56
2023-05-05T23:20:28.454Z,97728.03
2023-05-05T23:22:57.238Z,97729.97
2023-05-05T23:25:25.667Z,97731.59
2023-05-05T23:27:54.127Z,97727.22
2023-05-05T23:30:22.646Z,97720.06
2023-05-05T23:32:51.214Z,97717.00
2023-05-05T23:35:21.369Z,97721.69
2023-05-05T23:37:50.188Z,97717.00
2023-05-05T23:40:18.720Z,97716.19
2023-05-05T23:42:47.179Z,97718.94
2023-05-05T23:45:18.068Z,97713.75
2023-05-05T23:47:47.742Z,97716.19
2023-05-05T23:50:16.381Z,97709.06
2023-05-05T23:52:46.099Z,97713.44
2023-05-05T23:55:14.827Z,97720.06
2023-05-05T23:57:43.317Z,97714.56
